Lancaster, New Hampshire
Current Conditions -  °F | °C
As of 11:52 AM on Thursday 23 Oct 2014 (Local Time) from KHIE Reporting Station
Light Rain Light Rain  
Wind Chill: 46°   Ceiling: 7500
Heat Index: 49°   Visibility: 7mi
Dew Point: 45°   Wind: 7mph
Humidity: 86%   Direction: 50°NE
Pressure: 29.86"   Gusts: NA
Location:  44.49°N, 71.57°W
Report Text: KHIE 231552Z AUTO 05006KT 7SM -RA FEW027 SCT050 OVC075 09/07 A2986 RMK AO2 RAB18 SLP116 P0001 T00940072
Loading
Personal Weather Stations






























Interactive Weather Map
Tropical Storm Tracking
New forecast layout! Learn more

10-Day Weather Forecast

Advertisements
Track Severe Weather on mobile